Latest Weather Observations for Fitzroy Crossing

IDW60801

Issued at 4:23 am WST Tuesday 7 December 2021 (issued every 10 minutes, with the page automatically refreshed every 10 minutes)

About weather observations | Map of weather stations | Latest weather observations for WA | Other Formats
Station Details ID: 003093 Name: FITZROY CROSSING AERO Lat: -18.18 Lon: 125.56 Height: 114.5 m
Data from the previous 72 hours. | See also: Recent months at Fitzroy Crossing
Date/Time
WST
Temp
°C
App
Temp
°C
Dew
Point
°C
Rel
Hum
%
Delta-T
°C
Wind Press
QNH
hPa
Press
MSL
hPa
Rain since
9am
mm
Dir  Spd
km/h
Gust
km/h
Spd
kts
Gust
kts
07/04:00am 25.3 28.7 22.0 82 2.2 E 7 9 4 5 1005.9 1004.9 5.6
07/03:30am 25.7 30.0 22.0 80 2.5 WSW 2 6 1 3 1005.5 1004.5 5.6
07/03:00am 25.5 28.9 21.6 79 2.6 NW 6 9 3 5 1005.0 1004.0 5.6
07/02:30am 25.8 27.9 21.7 78 2.7 NNW 13 19 7 10 1005.3 1004.3 5.6
07/02:00am 25.5 28.2 22.2 82 2.2 NW 11 15 6 8 1005.5 1004.5 5.6
07/01:30am 25.6 25.0 21.9 80 2.5 NNW 28 35 15 19 1005.3 1004.3 5.6
07/01:00am 25.4 25.6 22.1 82 2.2 NNW 24 30 13 16 1005.7 1004.7 5.6
07/12:30am 25.6 25.8 22.1 81 2.4 NNW 24 33 13 18 1006.0 1005.0 5.4
07/12:00am 25.3 25.6 22.2 83 2.1 N 24 35 13 19 1005.4 1004.4 5.4
 
Date/Time
WST
Temp
°C
App
Temp
°C
Dew
Point
°C
Rel
Hum
%
Delta-T
°C
Wind Press
QNH
hPa
Press
MSL
hPa
Rain since
9am
mm
Dir  Spd
km/h
Gust
km/h
Spd
kts
Gust
kts
06/11:44pm 25.7 26.7 22.2 81 2.4 N 20 32 11 17 1005.9 1004.9 5.2
06/11:34pm 26.1 27.0 22.6 81 2.4 N 22 32 12 17 1005.7 1004.7 4.8
06/11:30pm 26.3 27.9 22.8 81 2.4 N 19 26 10 14 1005.8 1004.8 4.8
06/11:00pm 26.1 26.5 22.4 80 2.5 N 24 32 13 17 1005.9 1004.9 4.6
06/10:30pm 28.6 26.5 21.6 66 4.7 NW 35 46 19 25 1004.5 1003.6 4.4
06/10:17pm 29.3 27.4 22.0 64 4.9 NW 35 46 19 25 1003.9 1003.0 4.4
06/10:00pm 28.6 27.7 22.8 71 4.0 NNW 32 46 17 25 1004.0 1003.1 4.4
06/09:30pm 29.7 28.7 22.7 66 4.8 NW 32 43 17 23 1005.9 1004.9 4.4
06/09:13pm 30.7 30.6 21.5 58 6.2 NW 24 50 13 27 1005.8 1004.8 4.4
06/09:00pm 33.3 34.2 16.6 36 10.7 WSW 7 11 4 6 1004.4 1003.5 4.4
06/08:30pm 33.2 31.9 15.7 35 11.0 W 17 37 9 20 1003.4 1002.5 4.4
06/08:00pm 33.3 30.0 13.9 31 11.9 NNE 24 37 13 20 1001.4 1000.5 4.4
06/07:30pm 31.7 27.3 15.6 37 10.0 ESE 33 57 18 31 1003.3 1002.4 4.4
06/07:29pm 31.2 27.1 16.0 40 9.5 ESE 32 57 17 31 1003.3 1002.4 4.4
06/07:26pm 30.8 28.7 17.1 43 8.7 E 24 50 13 27 1003.5 1002.6 4.4
06/07:14pm 28.8 25.8 17.7 51 7.1 ENE 30 44 16 24 1002.9 1002.0 4.4
06/07:00pm 27.0 20.8 18.3 59 5.6 E 48 76 26 41 1003.7 1002.8 3.4
06/06:50pm 26.1 20.2 19.7 68 4.2 ESE 50 80 27 43 1002.9 1002.0 2.4
06/06:43pm 29.1 24.5 18.8 53 6.7 SE 41 76 22 41 1002.6 1001.7 0.6
06/06:37pm 31.9 27.3 17.0 41 9.5 SE 37 56 20 30 1001.9 1001.0 0.0
06/06:31pm 37.5 33.4 11.5 21 15.6 SE 24 56 13 30 1001.9 1001.0 0.0
06/06:30pm 38.0 34.6 11.1 20 16.1 SE 20 44 11 24 1001.9 1001.0 0.0
06/06:28pm 38.8 36.7 11.0 19 16.6 SE 13 41 7 22 1002.0 1001.1 0.0
06/06:00pm 40.5 40.2 11.6 18 17.6 ESE 4 6 2 3 1001.0 1000.1 0.0
06/05:30pm 41.9 41.4 10.9 16 18.8 ESE 4 7 2 4 1000.5 999.5 0.0
06/05:00pm 42.6 41.7 10.5 15 19.4 NW 6 9 3 5 1000.1 999.1 0.0
06/04:30pm 42.2 41.5 12.1 17 18.5 NNE 7 11 4 6 1000.1 999.1 0.0
06/04:00pm 42.6 41.3 12.4 17 18.8 NNE 11 20 6 11 1000.2 999.2 0.0
06/03:30pm 43.1 42.3 12.8 17 18.9 WNW 9 15 5 8 1000.5 999.5 0.0
06/03:00pm 42.6 41.9 13.3 18 18.4 E 9 17 5 9 1000.9 1000.0 0.0
06/02:30pm 42.8 42.1 14.2 18 18.1 E 11 19 6 10 1001.3 1000.4 0.0
06/02:00pm 41.8 41.7 15.0 21 17.2 N 9 17 5 9 1001.5 1000.6 0.0
06/01:30pm 41.8 42.0 15.7 21 16.8 NNW 9 24 5 13 1002.0 1001.1 0.0
06/01:00pm 41.0 40.4 15.7 22 16.3 N 13 30 7 16 1002.4 1001.5 0.0
06/12:30pm 40.9 40.9 16.3 23 15.9 ENE 11 17 6 9 1002.9 1002.0 0.0
06/12:00pm 39.9 40.3 17.3 26 14.8 N 11 22 6 12 1003.1 1002.2 0.0
06/11:30am 39.6 39.8 17.7 28 14.4 NNE 13 24 7 13 1003.4 1002.5 0.0
06/11:00am 38.3 39.1 18.2 31 13.3 NNE 11 20 6 11 1003.9 1003.0 0.0
06/10:30am 37.4 38.1 18.9 34 12.3 N 13 20 7 11 1004.3 1003.4 0.0
06/10:00am 36.4 38.3 19.8 37 11.2 NNE 9 17 5 9 1004.9 1003.9 0.0
06/09:30am 35.6 36.2 19.5 38 10.7 NW 15 24 8 13 1005.5 1004.5 0.0
06/09:00am 34.6 34.4 19.8 41 9.9 NNW 20 32 11 17 1005.5 1004.5 0.0
06/08:30am 33.9 33.7 20.6 45 8.9 NW 22 33 12 18 1005.7 1004.7 0.0
06/08:00am 32.9 32.0 21.4 50 7.8 NNW 28 37 15 20 1005.9 1004.9 0.0
06/07:30am 31.9 31.5 21.7 54 6.9 NNW 26 37 14 20 1006.1 1005.1 0.0
06/07:00am 31.2 31.6 22.5 60 6.0 N 24 35 13 19 1006.2 1005.2 0.0
06/06:30am 30.4 30.3 22.3 62 5.5 NNW 26 32 14 17 1006.2 1005.2 0.0
06/06:00am 29.7 31.0 22.7 66 4.8 NNW 20 30 11 16 1006.2 1005.2 0.0
06/05:30am 29.0 30.7 23.0 70 4.1 NNW 19 24 10 13 1005.4 1004.4 0.0
06/05:00am 28.9 30.6 23.1 71 4.0 NNW 19 26 10 14 1005.3 1004.3 0.0
06/04:30am 29.2 31.1 23.4 71 4.0 NW 19 24 10 13 1005.2 1004.2 0.0
06/04:00am 29.2 31.6 23.6 72 3.9 NW 17 22 9 12 1005.2 1004.2 0.0
06/03:30am 29.3 32.4 23.5 71 4.0 NW 13 22 7 12 1004.8 1003.8 0.0
06/03:00am 29.2 30.4 23.2 70 4.1 WNW 22 32 12 17 1003.5 1002.6 0.0
06/02:30am 29.6 29.6 23.1 68 4.5 WNW 28 39 15 21 1003.3 1002.4 0.0
06/02:00am 30.1 30.9 22.5 63 5.2 WNW 22 32 12 17 1003.4 1002.5 0.0
06/01:30am 30.6 32.1 22.7 62 5.4 WNW 19 24 10 13 1003.0 1002.1 0.0
06/01:00am 31.2 31.5 22.2 58 6.2 WNW 24 30 13 16 1003.0 1002.1 0.0
06/12:30am 31.9 32.5 21.4 53 7.1 WNW 20 28 11 15 1003.0 1002.1 0.0
06/12:00am 32.7 32.7 20.9 49 8.0 WNW 22 32 12 17 1003.0 1002.1 0.0
 
Date/Time
WST
Temp
°C
App
Temp
°C
Dew
Point
°C
Rel
Hum
%
Delta-T
°C
Wind Press
QNH
hPa
Press
MSL
hPa
Rain since
9am
mm
Dir  Spd
km/h
Gust
km/h
Spd
kts
Gust
kts
05/11:30pm 33.2 34.1 20.0 45 8.8 WNW 15 19 8 10 1003.2 1002.3 0.0
05/11:00pm 33.7 34.7 19.4 43 9.5 WNW 13 19 7 10 1003.3 1002.4 0.0
05/10:30pm 34.0 33.6 18.9 41 9.9 NW 19 24 10 13 1003.3 1002.4 0.0
05/10:00pm 34.5 34.0 17.7 37 10.9 NW 17 24 9 13 1003.5 1002.6 0.0
05/09:30pm 35.1 33.6 17.8 36 11.2 WNW 22 28 12 15 1003.6 1002.7 0.0
05/09:00pm 35.8 34.4 17.0 32 12.2 WNW 20 26 11 14 1003.4 1002.5 0.0
05/08:30pm 36.4 34.4 16.5 30 12.8 WNW 22 30 12 16 1002.7 1001.8 0.0
05/08:00pm 37.5 32.5 17.0 30 13.3 WNW 39 52 21 28 1002.2 1001.3 0.0
05/07:53pm 37.7 35.9 16.1 28 13.8 NW 20 52 11 28 1002.0 1001.1 0.0
05/07:30pm 36.9 35.1 9.5 19 15.9 NNW 9 11 5 6 1001.5 1000.6 0.0
05/07:00pm 38.0 37.9 9.6 18 16.7 CALM 0 6 0 3 1001.4 1000.5 0.0
05/06:30pm 39.4 37.8 8.9 16 17.8 SW 7 9 4 5 1000.9 1000.0 0.0
05/06:00pm 41.2 38.7 8.4 14 19.2 WSW 11 15 6 8 1000.8 999.9 0.0
05/05:30pm 42.5 38.9 8.3 13 20.0 WSW 17 22 9 12 1000.6 999.6 0.0
05/05:00pm 43.5 39.9 6.6 11 21.3 SW 15 26 8 14 1000.2 999.2 0.0
05/04:30pm 43.9 41.4 8.2 12 21.0 W 11 17 6 9 1000.2 999.2 0.0
05/04:00pm 44.4 40.9 7.3 11 21.7 SW 15 24 8 13 1000.2 999.2 0.0
05/03:30pm 44.9 40.6 7.7 11 21.8 W 20 30 11 16 1000.5 999.5 0.0
05/03:00pm 44.9 40.8 7.7 11 21.9 W 19 30 10 16 1001.0 1000.1 0.0
05/02:30pm 45.0 41.0 9.0 12 21.5 SW 20 30 11 16 1001.3 1000.4 0.0
05/02:00pm 44.5 40.0 8.6 12 21.3 W 22 33 12 18 1001.7 1000.8 0.0
05/01:30pm 44.2 40.3 9.6 13 20.7 WNW 20 28 11 15 1002.3 1001.4 0.0
05/01:00pm 43.7 39.9 9.2 13 20.6 W 19 32 10 17 1002.9 1002.0 0.0
05/12:30pm 43.5 39.4 10.2 14 20.1 W 22 33 12 18 1003.4 1002.5 0.0
05/12:00pm 42.9 39.3 10.7 15 19.6 WNW 20 35 11 19 1003.9 1003.0 0.0
05/11:30am 42.2 38.7 12.1 17 18.5 W 22 35 12 19 1004.3 1003.4 0.0
05/11:00am 41.5 37.9 13.2 19 17.7 WNW 24 32 13 17 1005.0 1004.0 0.0
05/10:30am 40.3 36.7 13.0 20 16.9 WNW 24 41 13 22 1005.5 1004.5 0.0
05/10:00am 39.7 36.9 15.3 23 15.6 NW 24 35 13 19 1006.2 1005.2 0.0
05/09:30am 38.1 35.9 17.0 29 13.7 NW 24 33 13 18 1006.6 1005.6 0.0
05/09:00am 35.8 35.0 17.9 34 11.7 NW 19 28 10 15 1007.3 1006.3 0.0
05/08:30am 34.4 33.6 19.2 40 10.1 NW 22 32 12 17 1007.4 1006.4 0.0
05/08:00am 33.5 32.8 20.3 46 8.9 NW 24 35 13 19 1007.7 1006.7 0.0
05/07:30am 31.9 31.8 21.4 53 7.1 NW 24 33 13 18 1007.8 1006.8 0.0
05/07:00am 31.5 31.6 21.9 56 6.5 NW 24 33 13 18 1008.0 1007.0 0.0
05/06:30am 30.7 30.8 21.8 59 6.0 WNW 24 33 13 18 1007.9 1006.9 0.0
05/06:00am 30.6 30.7 21.9 59 5.9 WNW 24 30 13 16 1007.6 1006.6 0.0
05/05:30am 30.1 31.1 21.7 60 5.7 WNW 19 24 10 13 1007.2 1006.2 0.0
05/05:00am 30.0 31.3 20.8 57 6.2 WNW 15 20 8 11 1006.3 1005.3 0.0
05/04:30am 30.3 31.4 20.5 55 6.5 NW 15 20 8 11 1005.7 1004.7 0.0
05/04:00am 30.7 30.5 19.4 51 7.4 NW 19 24 10 13 1005.3 1004.3 0.0
05/03:30am 31.2 29.8 17.9 45 8.6 NW 22 28 12 15 1005.0 1004.0 0.0
05/03:00am 31.6 29.5 17.1 41 9.3 NW 24 35 13 19 1004.8 1003.8 0.0
05/02:30am 31.6 30.2 19.6 49 7.9 NW 26 33 14 18 1004.8 1003.8 0.0
05/02:00am 32.1 30.8 20.7 51 7.7 NNW 28 35 15 19 1004.5 1003.6 0.0
05/01:30am 32.4 32.3 20.0 48 8.2 NW 20 32 11 17 1004.3 1003.4 0.0
05/01:00am 32.6 32.2 18.0 41 9.5 NW 17 26 9 14 1004.3 1003.4 0.0
05/12:30am 33.5 32.4 16.4 36 10.9 NW 17 22 9 12 1004.3 1003.4 0.0
05/12:00am 34.6 32.4 15.0 31 12.3 WNW 20 32 11 17 1004.4 1003.5 0.0
 
Date/Time
WST
Temp
°C
App
Temp
°C
Dew
Point
°C
Rel
Hum
%
Delta-T
°C
Wind Press
QNH
hPa
Press
MSL
hPa
Rain since
9am
mm
Dir  Spd
km/h
Gust
km/h
Spd
kts
Gust
kts
04/11:30pm 35.3 32.4 12.9 26 13.6 WNW 20 24 11 13 1004.5 1003.6 0.0
04/11:00pm 33.6 30.7 8.3 21 14.3 N 13 17 7 9 1004.5 1003.6 0.0
04/10:30pm 34.6 32.1 8.4 20 14.8 N 11 13 6 7 1004.8 1003.8 0.0
04/10:00pm 33.9 33.5 9.9 23 13.9 N 2 7 1 4 1005.0 1004.0 0.0
04/09:30pm 34.6 33.7 9.1 21 14.6 N 4 6 2 3 1005.0 1004.0 0.0
04/09:00pm 35.4 35.2 9.0 20 15.2 CALM 0 0 0 0 1004.8 1003.8 0.0
04/08:30pm 35.1 35.0 9.5 21 14.8 CALM 0 0 0 0 1004.6 1003.7 0.0
04/08:00pm 35.4 34.8 9.0 20 15.2 W 2 6 1 3 1004.5 1003.6 0.0
04/07:30pm 37.4 35.9 9.1 18 16.4 NNE 7 7 4 4 1004.3 1003.4 0.0
04/07:00pm 37.9 36.4 8.6 17 16.9 NNE 6 7 3 4 1004.0 1003.1 0.0
04/06:30pm 39.9 37.6 7.4 14 18.6 N 9 11 5 6 1003.9 1003.0 0.0
04/06:00pm 40.7 38.3 6.9 13 19.3 NNE 9 11 5 6 1003.6 1002.7 0.0
04/05:30pm 41.8 39.3 6.6 12 20.0 NNE 9 13 5 7 1003.0 1002.1 0.0
04/05:00pm 42.6 40.3 5.9 11 20.8 NNE 7 13 4 7 1002.7 1001.8 0.0
04/04:30pm 43.1 39.5 4.9 10 21.3 NNE 13 20 7 11 1002.5 1001.6 0.0
04/04:00pm 43.4 39.8 5.2 10 21.5 NNE 13 24 7 13 1002.5 1001.6 0.0
04/03:30pm 43.9 41.2 5.5 10 21.7 NNE 9 17 5 9 1002.5 1001.6 0.0
04/03:00pm 43.8 41.1 5.5 10 21.7 E 9 15 5 8 1002.8 1001.9 0.0
04/02:30pm 44.1 40.7 5.7 10 21.8 SE 13 24 7 13 1003.0 1002.1 0.0
04/02:00pm 43.8 41.1 5.5 10 21.7 NE 9 19 5 10 1003.3 1002.4 0.0
04/01:30pm 44.2 40.8 5.8 10 21.8 SW 13 22 7 12 1003.5 1002.6 0.0
04/01:00pm 43.4 40.6 5.2 10 21.5 SSE 9 15 5 8 1004.1 1003.2 0.0
04/12:30pm 42.6 40.3 5.9 11 20.8 NNE 7 13 4 7 1004.6 1003.7 0.0
04/12:00pm 42.7 40.2 8.4 13 20.2 NE 11 22 6 12 1005.2 1004.2 0.0
04/11:30am 42.1 39.9 8.0 13 19.8 SSE 9 15 5 8 1005.9 1004.9 0.0
04/11:00am 41.7 40.4 12.5 18 18.1 S 11 19 6 10 1006.5 1005.5 0.0
04/10:30am 40.1 38.5 12.8 19 16.8 E 13 19 7 10 1007.2 1006.2 0.0
04/10:00am 40.0 39.9 14.9 22 16.0 ENE 9 17 5 9 1007.9 1006.9 0.0
04/09:30am 38.3 38.1 14.8 25 14.8 S 9 15 5 8 1008.3 1007.3 0.0
04/09:00am 37.6 37.4 14.8 25 14.4 SSW 9 17 5 9 1008.7 1007.8 0.0
04/08:30am 36.6 35.6 16.7 30 12.8 SW 17 32 9 17 1008.8 1007.9 0.0
04/08:00am 34.8 34.7 18.8 39 10.6 SW 17 24 9 13 1008.7 1007.8 0.0
04/07:30am 33.7 32.2 19.4 43 9.5 SW 26 33 14 18 1008.6 1007.6 0.0
04/07:00am 32.3 31.9 20.9 51 7.7 WSW 24 30 13 16 1008.9 1008.0 0.0
04/06:30am 31.0 31.9 22.0 58 6.1 W 20 26 11 14 1008.9 1008.0 0.0
04/06:00am 29.8 32.3 22.5 65 5.0 WNW 13 17 7 9 1008.8 1007.9 0.0
04/05:30am 27.8 30.5 20.6 65 4.8 WNW 7 9 4 5 1008.5 1007.5 0.0
04/05:00am 27.1 29.1 19.2 62 5.1 NW 7 9 4 5 1008.2 1007.2 0.0
04/04:30am 27.8 29.7 19.8 61 5.2 N 9 11 5 6 1008.0 1007.0 0.0

Other formats

Comma delimited format used in spreadsheet applications
http://www.bom.gov.au/fwo/IDW60801/IDW60801.94206.axf

JavaScript Object Notation format (JSON) in row-major order
http://www.bom.gov.au/fwo/IDW60801/IDW60801.94206.json

Data quality

Most of these data are generated automatically and are frequently updated. Quality checks on data are not normally performed. It is possible for incorrect values to appear. Refer to information at About Latest Weather Observations and please check the disclaimer before using these data.